createdAt,value
2018-09-22T00:00:24.105Z,1.93
2018-09-22T00:02:27.919Z,1.80
2018-09-22T00:04:31.899Z,1.77
2018-09-22T00:06:35.635Z,1.43
2018-09-22T00:08:39.791Z,1.90
2018-09-22T00:10:43.855Z,1.70
2018-09-22T00:12:53.874Z,1.70
2018-09-22T00:14:59.330Z,1.77
2018-09-22T00:17:03.484Z,1.83
2018-09-22T00:19:07.339Z,2.00
2018-09-22T00:21:11.131Z,1.60
2018-09-22T00:23:14.887Z,1.87
2018-09-22T00:25:18.572Z,1.97
2018-09-22T00:27:22.376Z,1.67
2018-09-22T00:29:26.115Z,1.90
2018-09-22T00:31:29.875Z,1.60
2018-09-22T00:33:33.636Z,2.10
2018-09-22T00:35:42.485Z,2.30
2018-09-22T00:37:46.488Z,1.93
2018-09-22T00:39:50.275Z,2.03
2018-09-22T00:41:54.002Z,1.93
2018-09-22T00:43:58.221Z,1.77
2018-09-22T00:46:02.031Z,1.93
2018-09-22T00:48:05.760Z,2.10
2018-09-22T00:50:09.578Z,2.73
2018-09-22T00:52:13.448Z,2.00
2018-09-22T00:54:17.185Z,2.40
2018-09-22T00:56:20.980Z,2.70
2018-09-22T00:58:24.753Z,1.60
2018-09-22T01:00:28.547Z,2.30
2018-09-22T01:02:32.332Z,2.17
2018-09-22T01:04:36.971Z,2.20
2018-09-22T01:06:40.685Z,1.80
2018-09-22T01:08:44.441Z,2.10
2018-09-22T01:10:48.304Z,2.33
2018-09-22T01:12:52.053Z,2.00
2018-09-22T01:14:55.877Z,2.03
2018-09-22T01:16:59.698Z,1.80
2018-09-22T01:19:03.787Z,1.80
2018-09-22T01:21:07.532Z,2.20
2018-09-22T01:23:11.354Z,2.57
2018-09-22T01:25:15.109Z,2.50
2018-09-22T01:27:18.791Z,2.20
2018-09-22T01:29:22.528Z,1.90
2018-09-22T01:31:26.188Z,2.27
2018-09-22T01:33:30.058Z,1.97
2018-09-22T01:35:38.636Z,2.17
2018-09-22T01:37:42.376Z,2.07
2018-09-22T01:39:46.099Z,1.97
2018-09-22T01:41:50.236Z,1.70
2018-09-22T01:43:54.607Z,2.03
2018-09-22T01:45:58.985Z,1.90
2018-09-22T01:48:02.762Z,1.90
2018-09-22T01:50:08.310Z,1.93
2018-09-22T01:52:13.588Z,1.87
2018-09-22T01:54:17.848Z,2.23
2018-09-22T01:56:21.689Z,2.37
2018-09-22T01:58:26.868Z,2.10
2018-09-22T02:00:30.766Z,2.00
2018-09-22T02:02:34.476Z,2.10
2018-09-22T02:04:38.485Z,2.23
2018-09-22T02:06:42.437Z,2.13
2018-09-22T02:08:46.961Z,2.33
2018-09-22T02:10:50.652Z,2.37
2018-09-22T02:12:54.451Z,2.30
2018-09-22T02:14:58.361Z,1.97
2018-09-22T02:17:02.391Z,1.80
2018-09-22T02:19:06.390Z,1.63
2018-09-22T02:21:10.100Z,2.00
2018-09-22T02:23:13.986Z,2.60
2018-09-22T02:25:17.724Z,2.40
2018-09-22T02:27:22.517Z,2.20
2018-09-22T02:29:26.252Z,1.60
2018-09-22T02:31:30.022Z,1.97
2018-09-22T02:33:33.640Z,1.73
2018-09-22T02:35:38.449Z,2.00
2018-09-22T02:37:42.078Z,1.80
2018-09-22T02:39:45.867Z,1.87
2018-09-22T02:41:49.499Z,1.83
2018-09-22T02:43:53.335Z,1.80
2018-09-22T02:45:57.025Z,2.00
2018-09-22T02:48:00.785Z,1.40
2018-09-22T02:50:05.370Z,1.90
2018-09-22T02:52:09.282Z,2.40
2018-09-22T02:54:13.179Z,1.70
2018-09-22T02:56:17.349Z,2.00
2018-09-22T02:58:21.109Z,1.77
2018-09-22T03:00:25.014Z,1.80
2018-09-22T03:02:28.656Z,1.80
2018-09-22T03:04:32.480Z,2.80
2018-09-22T03:06:36.179Z,1.90
2018-09-22T03:08:40.659Z,1.70
2018-09-22T03:10:44.351Z,1.57
2018-09-22T03:12:49.722Z,1.90
2018-09-22T03:14:53.485Z,2.00
2018-09-22T03:16:57.221Z,1.73
2018-09-22T03:19:00.928Z,2.37
2018-09-22T03:21:04.777Z,1.80
2018-09-22T03:23:08.570Z,1.47
2018-09-22T03:25:12.429Z,1.57
2018-09-22T03:27:16.255Z,2.10
2018-09-22T03:29:20.381Z,1.80
2018-09-22T03:31:24.185Z,2.07
2018-09-22T03:33:28.087Z,1.97
2018-09-22T03:35:31.781Z,2.13
2018-09-22T03:37:35.590Z,1.93
2018-09-22T03:39:39.276Z,1.70
2018-09-22T03:41:44.132Z,2.20
2018-09-22T03:43:47.869Z,2.30
2018-09-22T03:45:51.684Z,1.73
2018-09-22T03:47:55.408Z,2.40
2018-09-22T03:49:59.315Z,2.20
2018-09-22T03:52:03.088Z,2.03
2018-09-22T03:54:06.891Z,2.70
2018-09-22T03:56:10.863Z,1.97
2018-09-22T03:58:14.609Z,2.13
2018-09-22T04:00:18.329Z,2.07
2018-09-22T04:02:22.109Z,2.20
2018-09-22T04:04:25.780Z,2.13
2018-09-22T04:06:29.574Z,1.80
2018-09-22T04:08:33.317Z,1.60
2018-09-22T04:10:37.496Z,1.70
2018-09-22T04:12:41.216Z,2.00
2018-09-22T04:14:45.294Z,2.00
2018-09-22T04:16:49.120Z,1.93
2018-09-22T04:18:52.979Z,2.23
2018-09-22T04:20:56.744Z,1.87
2018-09-22T04:23:00.540Z,2.07
2018-09-22T04:25:04.821Z,1.97
2018-09-22T04:27:08.765Z,1.73
2018-09-22T04:29:12.467Z,1.60
2018-09-22T04:31:16.310Z,2.30
2018-09-22T04:33:20.094Z,2.20
2018-09-22T04:35:23.822Z,1.90
2018-09-22T04:37:27.650Z,2.73
2018-09-22T04:39:31.661Z,1.80
2018-09-22T04:41:36.055Z,2.03
2018-09-22T04:43:39.800Z,2.00
2018-09-22T04:45:43.714Z,2.77
2018-09-22T04:47:47.467Z,2.00
2018-09-22T04:49:51.234Z,1.70
2018-09-22T04:51:55.014Z,1.70
2018-09-22T04:53:59.176Z,2.03
2018-09-22T04:56:03.014Z,2.40
2018-09-22T04:58:06.743Z,2.30
2018-09-22T05:00:10.570Z,1.67
2018-09-22T05:02:15.041Z,1.63
2018-09-22T05:04:22.932Z,1.87
2018-09-22T05:06:28.100Z,1.60
2018-09-22T05:08:33.327Z,1.90
2018-09-22T05:10:42.711Z,1.70
2018-09-22T05:12:49.916Z,1.83
2018-09-22T05:14:54.379Z,1.90
2018-09-22T05:16:58.129Z,2.10
2018-09-22T05:19:01.838Z,2.77
2018-09-22T05:21:06.316Z,2.03
2018-09-22T05:23:10.163Z,2.50
2018-09-22T05:25:16.029Z,2.50
2018-09-22T05:27:19.831Z,2.20
2018-09-22T05:29:23.568Z,2.20
2018-09-22T05:31:27.632Z,2.63
2018-09-22T05:33:31.392Z,2.33
2018-09-22T05:35:35.096Z,2.20
2018-09-22T05:37:38.917Z,1.97
2018-09-22T05:39:42.786Z,2.40
2018-09-22T05:41:46.591Z,2.13
2018-09-22T05:43:50.422Z,1.67
2018-09-22T05:45:54.154Z,2.13
2018-09-22T05:47:57.944Z,1.93
2018-09-22T05:50:01.633Z,1.70
2018-09-22T05:52:05.382Z,2.13
2018-09-22T05:54:09.147Z,2.13
2018-09-22T05:56:13.009Z,1.80
2018-09-22T05:58:16.834Z,2.10
2018-09-22T06:00:20.606Z,2.73
2018-09-22T06:02:24.371Z,2.23
2018-09-22T06:04:28.173Z,2.20
2018-09-22T06:06:32.394Z,2.10
2018-09-22T06:08:36.344Z,2.43
2018-09-22T06:10:40.902Z,1.87
2018-09-22T06:12:44.748Z,2.00
2018-09-22T06:14:48.417Z,2.37
2018-09-22T06:17:05.052Z,2.10
2018-09-22T06:19:09.862Z,2.30
2018-09-22T06:21:25.393Z,2.00
2018-09-22T06:23:35.118Z,2.40
2018-09-22T06:25:38.862Z,2.00
2018-09-22T06:27:42.691Z,3.13
2018-09-22T06:29:57.464Z,2.40
2018-09-22T06:32:01.352Z,2.57
2018-09-22T06:34:05.101Z,2.57
2018-09-22T06:36:09.089Z,2.57
2018-09-22T06:38:13.130Z,2.30
2018-09-22T06:40:16.856Z,2.03
2018-09-22T06:42:20.655Z,2.20
2018-09-22T06:44:24.735Z,2.17
2018-09-22T06:48:37.558Z,2.00
2018-09-22T06:50:41.535Z,2.50
2018-09-22T06:52:45.276Z,2.60
2018-09-22T06:54:49.372Z,2.50
2018-09-22T06:56:53.242Z,2.40
2018-09-22T06:58:56.965Z,2.23
2018-09-22T07:01:02.944Z,1.80
2018-09-22T07:03:06.748Z,2.47
2018-09-22T07:05:10.677Z,2.20
2018-09-22T07:07:14.717Z,2.00
2018-09-22T07:09:18.656Z,2.13
2018-09-22T07:11:23.037Z,2.73
2018-09-22T07:13:26.845Z,1.80
2018-09-22T07:15:30.641Z,2.40
2018-09-22T07:17:35.597Z,2.30
2018-09-22T07:19:39.545Z,2.20
2018-09-22T07:21:50.063Z,2.40
2018-09-22T07:23:54.713Z,2.23
2018-09-22T07:25:58.686Z,2.17
2018-09-22T07:28:02.628Z,2.80
2018-09-22T07:30:06.699Z,1.97
2018-09-22T07:32:10.525Z,2.70
2018-09-22T07:34:16.064Z,2.50
2018-09-22T07:36:19.949Z,2.40
2018-09-22T07:38:23.755Z,1.73
2018-09-22T07:40:27.557Z,2.33
2018-09-22T07:42:31.395Z,2.40
2018-09-22T07:44:35.300Z,2.10
2018-09-22T07:46:39.357Z,1.97
2018-09-22T07:48:43.154Z,2.00
2018-09-22T07:50:53.747Z,2.27
2018-09-22T07:52:58.649Z,2.50
2018-09-22T07:55:02.510Z,2.77
2018-09-22T07:57:06.391Z,2.47
2018-09-22T07:59:10.356Z,2.30
2018-09-22T08:01:14.120Z,2.10
2018-09-22T08:03:18.116Z,2.63
2018-09-22T08:05:22.335Z,2.30
2018-09-22T08:07:26.213Z,2.60
2018-09-22T08:09:29.964Z,2.27
2018-09-22T08:11:33.712Z,2.00
2018-09-22T08:13:37.506Z,2.50
2018-09-22T08:15:41.321Z,2.40
2018-09-22T08:17:45.088Z,2.10
2018-09-22T08:19:48.745Z,2.17
2018-09-22T08:21:52.435Z,2.50
2018-09-22T08:23:56.202Z,2.83
2018-09-22T08:26:00.962Z,1.80
2018-09-22T08:28:04.816Z,2.57
2018-09-22T08:30:08.860Z,3.13
2018-09-22T08:32:12.771Z,2.43
2018-09-22T08:34:16.772Z,2.33
2018-09-22T08:36:20.954Z,2.20
2018-09-22T08:38:25.030Z,2.37
2018-09-22T08:40:29.066Z,2.63
2018-09-22T08:42:41.968Z,1.87
2018-09-22T08:44:46.327Z,1.97
2018-09-22T08:46:50.274Z,2.20
2018-09-22T08:48:54.081Z,2.37
2018-09-22T08:50:58.102Z,2.53
2018-09-22T08:53:01.998Z,2.03
2018-09-22T08:55:05.842Z,2.33
2018-09-22T08:57:09.913Z,2.77
2018-09-22T08:59:13.806Z,2.30
2018-09-22T09:01:17.679Z,2.40
2018-09-22T09:03:21.449Z,2.10
2018-09-22T09:05:25.253Z,2.30
2018-09-22T09:07:29.116Z,2.20
2018-09-22T09:09:33.115Z,2.40
2018-09-22T09:11:36.994Z,1.90
2018-09-22T09:13:40.800Z,2.93
2018-09-22T09:15:44.594Z,2.47
2018-09-22T09:17:48.673Z,2.40
2018-09-22T09:19:52.430Z,3.13
2018-09-22T09:21:56.224Z,2.90
2018-09-22T09:24:00.097Z,2.63
2018-09-22T09:26:03.948Z,2.77
2018-09-22T09:28:08.007Z,2.00
2018-09-22T09:30:11.741Z,3.43
2018-09-22T09:32:17.607Z,3.13
2018-09-22T09:34:21.502Z,2.70
2018-09-22T09:36:25.326Z,2.93
2018-09-22T09:38:29.321Z,2.60
2018-09-22T09:40:33.428Z,2.20
2018-09-22T09:42:37.460Z,3.37
2018-09-22T09:44:41.196Z,2.50
2018-09-22T09:46:45.127Z,2.37
2018-09-22T09:48:48.838Z,2.27
2018-09-22T09:50:52.582Z,3.87
2018-09-22T09:52:56.493Z,2.60
2018-09-22T09:55:00.271Z,2.47
2018-09-22T09:57:04.339Z,3.07
2018-09-22T09:59:08.102Z,2.77
2018-09-22T10:01:11.840Z,2.53
2018-09-22T10:03:17.238Z,2.43
2018-09-22T10:05:21.009Z,2.23
2018-09-22T10:07:24.737Z,2.10
2018-09-22T10:09:28.517Z,2.40
2018-09-22T10:11:32.236Z,2.20
2018-09-22T10:13:36.133Z,2.43
2018-09-22T10:15:39.895Z,2.90
2018-09-22T10:17:43.681Z,2.97
2018-09-22T10:19:47.433Z,2.40
2018-09-22T10:21:51.790Z,2.00
2018-09-22T10:23:55.508Z,2.10
2018-09-22T10:25:59.227Z,3.00
2018-09-22T10:28:03.161Z,2.33
2018-09-22T10:30:07.608Z,2.63
2018-09-22T10:32:11.549Z,2.60
2018-09-22T10:34:15.443Z,2.60
2018-09-22T10:36:19.416Z,2.17
2018-09-22T10:38:23.269Z,2.40
2018-09-22T10:40:27.106Z,1.80
2018-09-22T10:42:30.880Z,2.17
2018-09-22T10:44:34.697Z,2.50
2018-09-22T10:46:38.540Z,2.30
2018-09-22T10:48:42.300Z,3.10
2018-09-22T10:50:46.352Z,2.57
2018-09-22T10:52:50.207Z,2.47
2018-09-22T10:54:53.845Z,1.90
2018-09-22T10:56:57.625Z,2.60
2018-09-22T10:59:01.465Z,2.23
2018-09-22T11:01:05.341Z,2.60
2018-09-22T11:03:09.185Z,1.87
2018-09-22T11:05:12.982Z,2.37
2018-09-22T11:07:16.826Z,2.63
2018-09-22T11:09:20.752Z,2.30
2018-09-22T11:11:27.012Z,1.87
2018-09-22T11:13:30.788Z,2.30
2018-09-22T11:15:34.778Z,2.70
2018-09-22T11:17:38.565Z,2.03
2018-09-22T11:19:43.236Z,2.20
2018-09-22T11:21:47.055Z,2.10
2018-09-22T11:23:50.959Z,2.70
2018-09-22T11:25:54.759Z,2.27
2018-09-22T11:27:58.639Z,1.90
2018-09-22T11:30:02.580Z,2.40
2018-09-22T11:32:06.431Z,2.30
2018-09-22T11:34:10.161Z,2.20
2018-09-22T11:36:16.506Z,2.00
2018-09-22T11:38:21.011Z,2.37
2018-09-22T11:40:27.174Z,1.80
2018-09-22T11:42:30.842Z,2.50
2018-09-22T11:44:34.889Z,1.97
2018-09-22T11:46:38.640Z,2.40
2018-09-22T11:48:42.580Z,1.80
2018-09-22T11:50:47.300Z,1.53
2018-09-22T11:52:51.001Z,2.20
2018-09-22T11:54:55.057Z,2.07
2018-09-22T11:56:59.154Z,1.93
2018-09-22T11:59:08.764Z,1.90
2018-09-22T12:01:12.505Z,2.40
2018-09-22T12:03:22.627Z,1.60
2018-09-22T12:05:26.879Z,2.50
2018-09-22T12:07:31.834Z,2.17
2018-09-22T12:09:36.036Z,1.60
2018-09-22T12:11:49.511Z,1.90
2018-09-22T12:13:58.110Z,2.23
2018-09-22T12:16:02.956Z,1.77
2018-09-22T12:18:09.762Z,2.47
2018-09-22T12:20:15.991Z,2.13
2018-09-22T12:22:19.917Z,1.80
2018-09-22T12:24:31.035Z,2.23
2018-09-22T12:26:36.465Z,1.90
2018-09-22T12:28:42.583Z,2.20
2018-09-22T12:30:48.889Z,2.30
2018-09-22T12:32:55.220Z,2.10
2018-09-22T12:35:00.221Z,3.13
2018-09-22T12:37:05.775Z,1.83
2018-09-22T12:39:12.790Z,2.40
2018-09-22T12:41:18.711Z,2.20
2018-09-22T12:43:24.664Z,2.20
2018-09-22T12:45:29.277Z,1.90
2018-09-22T12:47:33.823Z,1.97
2018-09-22T12:49:37.985Z,2.17
2018-09-22T12:51:45.360Z,2.60
2018-09-22T12:53:50.882Z,2.20
2018-09-22T12:55:57.961Z,2.30
2018-09-22T12:58:03.058Z,1.80
2018-09-22T13:00:10.666Z,2.50
2018-09-22T13:02:14.793Z,2.40
2018-09-22T13:04:22.313Z,2.40
2018-09-22T13:06:30.404Z,2.23
2018-09-22T13:08:39.135Z,2.10
2018-09-22T13:10:48.019Z,1.90
2018-09-22T13:12:54.502Z,1.97
2018-09-22T13:15:03.798Z,2.50
2018-09-22T13:17:11.100Z,2.60
2018-09-22T13:19:15.818Z,2.10
2018-09-22T13:21:23.655Z,3.47
2018-09-22T13:23:30.114Z,3.67
2018-09-22T13:25:38.601Z,2.50
2018-09-22T13:27:55.206Z,2.77
2018-09-22T13:30:03.930Z,3.03
2018-09-22T13:32:11.965Z,1.80
2018-09-22T13:34:19.856Z,1.97
2018-09-22T13:36:30.088Z,2.17
2018-09-22T13:38:38.480Z,2.17
2018-09-22T13:40:47.272Z,2.10
2018-09-22T13:42:56.555Z,2.40
2018-09-22T13:45:04.244Z,1.80
2018-09-22T13:47:14.267Z,2.33
2018-09-22T13:49:18.145Z,2.50
2018-09-22T13:51:22.113Z,2.00
2018-09-22T13:53:28.188Z,2.07
2018-09-22T13:55:37.054Z,2.20
2018-09-22T13:57:46.415Z,2.20
2018-09-22T13:59:50.355Z,1.80
2018-09-22T14:01:54.508Z,1.70
2018-09-22T14:03:58.350Z,2.13
2018-09-22T14:06:02.816Z,2.10
2018-09-22T14:08:06.726Z,2.50
2018-09-22T14:10:10.534Z,2.13
2018-09-22T14:12:14.359Z,2.50
2018-09-22T14:14:18.577Z,2.40
2018-09-22T14:16:22.473Z,2.93
2018-09-22T14:18:26.492Z,2.23
2018-09-22T14:20:30.272Z,2.10
2018-09-22T14:22:33.975Z,2.20
2018-09-22T14:24:37.911Z,1.77
2018-09-22T14:26:41.671Z,1.87
2018-09-22T14:28:45.732Z,1.97
2018-09-22T14:30:49.781Z,2.47
2018-09-22T14:32:54.295Z,2.57
2018-09-22T14:34:57.978Z,2.20
2018-09-22T14:37:01.675Z,1.93
2018-09-22T14:39:06.186Z,1.60
2018-09-22T14:41:09.859Z,1.70
2018-09-22T14:43:14.555Z,3.00
2018-09-22T14:45:18.673Z,1.90
2018-09-22T14:47:22.351Z,1.87
2018-09-22T14:49:26.112Z,1.87
2018-09-22T14:51:29.814Z,1.60
2018-09-22T14:53:33.566Z,1.93
2018-09-22T14:55:37.198Z,2.20
2018-09-22T14:57:40.873Z,1.70
2018-09-22T14:59:44.645Z,2.50
2018-09-22T15:01:49.236Z,1.87
2018-09-22T15:03:52.995Z,2.30
2018-09-22T15:05:57.314Z,2.27
2018-09-22T15:08:00.979Z,1.80
2018-09-22T15:10:04.923Z,2.20
2018-09-22T15:12:08.621Z,2.13
2018-09-22T15:14:12.398Z,2.13
2018-09-22T15:16:16.861Z,2.67
2018-09-22T15:18:20.406Z,1.90
2018-09-22T15:20:24.312Z,1.70
2018-09-22T15:22:28.365Z,1.80
2018-09-22T15:24:32.067Z,1.60
2018-09-22T15:26:35.974Z,1.50
2018-09-22T15:28:39.785Z,1.77
2018-09-22T15:30:44.167Z,1.60
2018-09-22T15:32:48.002Z,1.80
2018-09-22T15:34:52.220Z,2.77
2018-09-22T15:36:55.885Z,1.97
2018-09-22T15:38:59.784Z,2.50
2018-09-22T15:41:03.710Z,1.40
2018-09-22T15:43:07.404Z,1.80
2018-09-22T15:45:11.688Z,1.60
2018-09-22T15:47:15.433Z,2.03
2018-09-22T15:49:19.423Z,1.80
2018-09-22T15:51:23.932Z,1.53
2018-09-22T15:53:30.531Z,1.80
2018-09-22T15:55:35.631Z,2.20
2018-09-22T15:57:42.552Z,1.83
2018-09-22T15:59:47.425Z,1.57
2018-09-22T16:01:51.072Z,1.73
2018-09-22T16:03:54.628Z,2.20
2018-09-22T16:05:58.206Z,1.80
2018-09-22T16:08:02.358Z,1.73
2018-09-22T16:10:06.376Z,1.77
2018-09-22T16:12:10.089Z,2.10
2018-09-22T16:14:14.002Z,2.10
2018-09-22T16:16:17.664Z,1.90
2018-09-22T16:18:21.384Z,2.03
2018-09-22T16:20:24.971Z,1.80
2018-09-22T16:22:28.686Z,2.10
2018-09-22T16:24:32.541Z,2.20
2018-09-22T16:26:36.727Z,2.30
2018-09-22T16:28:42.941Z,1.90
2018-09-22T16:30:46.692Z,1.50
2018-09-22T16:32:52.161Z,1.60
2018-09-22T16:34:55.854Z,2.13
2018-09-22T16:36:59.911Z,1.80
2018-09-22T16:39:04.231Z,1.93
2018-09-22T16:41:07.826Z,1.40
2018-09-22T16:43:11.539Z,1.70
2018-09-22T16:45:15.224Z,2.50
2018-09-22T16:47:18.887Z,1.90
2018-09-22T16:49:22.969Z,1.83
2018-09-22T16:51:26.627Z,2.17
2018-09-22T16:53:30.402Z,2.70
2018-09-22T16:55:35.170Z,2.43
2018-09-22T16:57:38.789Z,2.00
2018-09-22T16:59:42.441Z,1.90
2018-09-22T17:01:46.061Z,1.80
2018-09-22T17:03:49.948Z,2.00
2018-09-22T17:05:53.739Z,2.20
2018-09-22T17:07:57.439Z,2.07
2018-09-22T17:10:01.137Z,2.30
2018-09-22T17:12:04.844Z,1.90
2018-09-22T17:14:09.161Z,1.93
2018-09-22T17:16:13.257Z,2.20
2018-09-22T17:18:16.871Z,2.10
2018-09-22T17:20:20.521Z,1.90
2018-09-22T17:22:24.248Z,1.87
2018-09-22T17:24:28.183Z,2.03
2018-09-22T17:26:31.848Z,2.33
2018-09-22T17:28:36.801Z,2.00
2018-09-22T17:30:40.380Z,1.87
2018-09-22T17:32:43.984Z,1.80
2018-09-22T17:34:47.975Z,1.93
2018-09-22T17:36:51.761Z,1.80
2018-09-22T17:38:55.969Z,1.70
2018-09-22T17:40:59.849Z,2.10
2018-09-22T17:43:10.653Z,2.37
2018-09-22T17:45:14.804Z,2.17
2018-09-22T17:47:18.553Z,2.40
2018-09-22T17:49:22.268Z,2.10
2018-09-22T17:51:25.986Z,2.60
2018-09-22T17:53:29.675Z,2.10
2018-09-22T17:55:33.498Z,2.23
2018-09-22T17:57:37.237Z,3.03
2018-09-22T17:59:41.135Z,2.87
2018-09-22T18:01:45.090Z,4.07
2018-09-22T18:03:48.941Z,4.43
2018-09-22T18:05:52.885Z,5.63
2018-09-22T18:07:56.631Z,3.30
2018-09-22T18:10:00.622Z,1.97
2018-09-22T18:12:04.440Z,2.03
2018-09-22T18:14:08.168Z,3.03
2018-09-22T18:16:12.523Z,2.30
2018-09-22T18:18:16.255Z,2.03
2018-09-22T18:20:20.262Z,2.07
2018-09-22T18:22:24.226Z,2.10
2018-09-22T18:24:28.608Z,2.17
2018-09-22T18:26:32.482Z,2.53
2018-09-22T18:28:36.401Z,2.80
2018-09-22T18:30:40.100Z,2.50
2018-09-22T18:32:43.801Z,3.63
2018-09-22T18:34:47.415Z,4.13
2018-09-22T18:36:51.091Z,2.77
2018-09-22T18:38:56.166Z,4.17
2018-09-22T18:40:59.931Z,2.47
2018-09-22T18:43:03.601Z,3.80
2018-09-22T18:45:07.452Z,2.97
2018-09-22T18:47:11.101Z,2.50
2018-09-22T18:49:15.061Z,2.10
2018-09-22T18:51:19.048Z,2.80
2018-09-22T18:53:22.773Z,2.60
2018-09-22T18:55:26.662Z,2.97
2018-09-22T18:57:30.336Z,2.20
2018-09-22T18:59:34.322Z,3.07
2018-09-22T19:01:38.322Z,3.63
2018-09-22T19:03:42.193Z,3.73
2018-09-22T19:05:45.855Z,3.10
2018-09-22T19:07:49.548Z,3.10
2018-09-22T19:09:53.217Z,2.80
2018-09-22T19:11:57.078Z,3.70
2018-09-22T19:14:05.201Z,3.50
2018-09-22T19:16:19.141Z,2.77
2018-09-22T19:18:27.961Z,3.07
2018-09-22T19:20:36.582Z,2.50
2018-09-22T19:22:47.562Z,2.90
2018-09-22T19:25:12.074Z,3.30
2018-09-22T19:27:19.011Z,3.10
2018-09-22T19:29:26.898Z,2.67
2018-09-22T19:31:36.781Z,3.23
2018-09-22T19:33:57.829Z,2.80
2018-09-22T19:36:36.093Z,3.20
2018-09-22T19:38:43.906Z,3.07
2018-09-22T19:41:23.122Z,3.37
2018-09-22T19:43:32.796Z,3.50
2018-09-22T19:45:40.170Z,2.50
2018-09-22T19:47:50.464Z,4.00
2018-09-22T19:49:57.289Z,3.37
2018-09-22T19:52:07.961Z,3.63
2018-09-22T19:54:12.142Z,2.90
2018-09-22T19:56:16.042Z,2.90
2018-09-22T19:58:19.762Z,3.03
2018-09-22T20:00:23.559Z,2.80
2018-09-22T20:02:27.582Z,3.40
2018-09-22T20:04:31.249Z,3.10
2018-09-22T20:06:34.927Z,4.80
2018-09-22T20:08:38.655Z,4.30
2018-09-22T20:10:42.249Z,3.87
2018-09-22T20:12:46.052Z,3.50
2018-09-22T20:14:49.827Z,3.13
2018-09-22T20:16:53.408Z,4.90
2018-09-22T20:18:57.535Z,4.10
2018-09-22T20:21:01.294Z,3.43
2018-09-22T20:23:05.625Z,3.30
2018-09-22T20:25:09.584Z,2.77
2018-09-22T20:27:13.413Z,2.67
2018-09-22T20:29:17.201Z,3.50
2018-09-22T20:31:21.063Z,4.23
2018-09-22T20:33:24.901Z,5.33
2018-09-22T20:35:28.583Z,8.53
2018-09-22T20:37:32.350Z,8.50
2018-09-22T20:39:36.861Z,6.30
2018-09-22T20:41:41.125Z,5.03
2018-09-22T20:43:44.819Z,4.80
2018-09-22T20:45:48.695Z,6.70
2018-09-22T20:47:52.596Z,11.70
2018-09-22T20:49:56.550Z,7.93
2018-09-22T20:52:00.334Z,4.77
2018-09-22T20:54:03.988Z,5.60
2018-09-22T20:56:08.090Z,5.00
2018-09-22T20:58:15.089Z,6.57
2018-09-22T21:00:19.024Z,5.10
2018-09-22T21:02:22.644Z,4.17
2018-09-22T21:04:27.455Z,3.97
2018-09-22T21:06:31.309Z,3.40
2018-09-22T21:08:35.108Z,3.73
2018-09-22T21:10:38.946Z,3.87
2018-09-22T21:12:42.643Z,3.40
2018-09-22T21:14:46.323Z,2.90
2018-09-22T21:16:50.502Z,3.47
2018-09-22T21:18:54.385Z,2.93
2018-09-22T21:20:58.115Z,2.87
2018-09-22T21:23:02.129Z,2.93
2018-09-22T21:25:05.860Z,2.83
2018-09-22T21:27:09.806Z,2.97
2018-09-22T21:29:13.674Z,2.70
2018-09-22T21:31:17.385Z,2.93
2018-09-22T21:33:21.324Z,3.13
2018-09-22T21:35:25.000Z,3.40
2018-09-22T21:37:28.690Z,2.77
2018-09-22T21:39:32.256Z,4.30
2018-09-22T21:41:35.939Z,2.73
2018-09-22T21:43:39.576Z,3.40
2018-09-22T21:45:43.247Z,2.67
2018-09-22T21:47:46.801Z,2.97
2018-09-22T21:49:50.476Z,4.17
2018-09-22T21:51:54.069Z,3.00
2018-09-22T21:53:57.662Z,2.97
2018-09-22T21:56:01.478Z,3.03
2018-09-22T21:58:05.221Z,3.00
2018-09-22T22:00:09.606Z,2.20
2018-09-22T22:02:13.307Z,2.63
2018-09-22T22:04:16.926Z,2.93
2018-09-22T22:06:20.596Z,2.83
2018-09-22T22:08:24.203Z,2.40
2018-09-22T22:10:27.773Z,2.77
2018-09-22T22:12:31.417Z,2.60
2018-09-22T22:14:35.243Z,2.80
2018-09-22T22:16:40.204Z,4.27
2018-09-22T22:18:43.792Z,3.63
2018-09-22T22:20:47.432Z,3.50
2018-09-22T22:22:51.198Z,2.90
2018-09-22T22:24:54.817Z,1.90
2018-09-22T22:26:59.347Z,2.50
2018-09-22T22:29:03.163Z,2.60
2018-09-22T22:31:06.905Z,2.90
2018-09-22T22:33:10.527Z,2.50
2018-09-22T22:35:14.562Z,2.40
2018-09-22T22:37:18.121Z,2.30
2018-09-22T22:39:21.900Z,3.07
2018-09-22T22:41:26.437Z,2.50
2018-09-22T22:43:30.017Z,2.40
2018-09-22T22:45:33.847Z,2.27
2018-09-22T22:47:37.513Z,2.40
2018-09-22T22:49:41.126Z,1.80
2018-09-22T22:51:44.846Z,2.40
2018-09-22T22:53:48.634Z,2.73
2018-09-22T22:55:52.266Z,2.93
2018-09-22T22:57:55.897Z,2.23
2018-09-22T22:59:59.471Z,2.90
2018-09-22T23:02:03.150Z,2.73
2018-09-22T23:04:07.126Z,2.33
2018-09-22T23:06:10.815Z,2.13
2018-09-22T23:08:14.412Z,2.40
2018-09-22T23:10:18.103Z,2.60
2018-09-22T23:12:22.124Z,2.87
2018-09-22T23:14:27.922Z,2.17
2018-09-22T23:16:31.761Z,2.23
2018-09-22T23:18:36.069Z,2.03
2018-09-22T23:20:39.755Z,2.77
2018-09-22T23:22:43.910Z,2.57
2018-09-22T23:24:47.526Z,2.70
2018-09-22T23:26:51.336Z,2.53
2018-09-22T23:28:56.743Z,2.50
2018-09-22T23:31:00.286Z,2.60
2018-09-22T23:33:03.966Z,3.23
2018-09-22T23:35:07.796Z,3.13
2018-09-22T23:37:11.715Z,3.17
2018-09-22T23:39:15.458Z,2.70
2018-09-22T23:41:19.172Z,2.43
2018-09-22T23:43:22.846Z,2.50
2018-09-22T23:45:26.768Z,2.60
2018-09-22T23:47:30.482Z,2.10
2018-09-22T23:49:34.044Z,2.17
2018-09-22T23:51:38.123Z,2.40
2018-09-22T23:53:42.402Z,2.70
2018-09-22T23:55:46.138Z,2.63
2018-09-22T23:57:49.882Z,2.60
2018-09-22T23:59:53.527Z,3.13
